sensor_id;sensor_type;location;lat;lon;timestamp;P1;durP1;ratioP1;P2;durP2;ratioP2
10230;SDS011;62604;49.432;8.680;2022-12-20T00:54:24;8.77;;;6.27;;
10230;SDS011;62604;49.432;8.680;2022-12-20T00:56:51;7.10;;;6.00;;
10230;SDS011;62604;49.432;8.680;2022-12-20T00:59:22;8.17;;;6.73;;
10230;SDS011;62604;49.432;8.680;2022-12-20T01:01:50;10.53;;;6.30;;
10230;SDS011;62604;49.432;8.680;2022-12-20T01:04:19;8.33;;;5.90;;
10230;SDS011;62604;49.432;8.680;2022-12-20T01:06:46;6.80;;;6.10;;
10230;SDS011;62604;49.432;8.680;2022-12-20T01:09:14;6.93;;;6.23;;
10230;SDS011;62604;49.432;8.680;2022-12-20T01:11:44;9.47;;;6.57;;
10230;SDS011;62604;49.432;8.680;2022-12-20T01:14:14;8.67;;;6.83;;
10230;SDS011;62604;49.432;8.680;2022-12-20T01:16:43;9.27;;;6.07;;
10230;SDS011;62604;49.432;8.680;2022-12-20T01:19:11;10.00;;;6.63;;
10230;SDS011;62604;49.432;8.680;2022-12-20T01:21:43;9.37;;;6.77;;
10230;SDS011;62604;49.432;8.680;2022-12-20T01:24:11;9.67;;;6.67;;
10230;SDS011;62604;49.432;8.680;2022-12-20T01:26:40;9.70;;;6.67;;
10230;SDS011;62604;49.432;8.680;2022-12-20T01:29:08;8.20;;;6.10;;
10230;SDS011;62604;49.432;8.680;2022-12-20T01:31:35;8.60;;;6.47;;
10230;SDS011;62604;49.432;8.680;2022-12-20T01:34:04;8.23;;;6.83;;
10230;SDS011;62604;49.432;8.680;2022-12-20T01:36:33;7.83;;;6.30;;
10230;SDS011;62604;49.432;8.680;2022-12-20T01:39:05;7.33;;;5.37;;
10230;SDS011;62604;49.432;8.680;2022-12-20T01:41:33;8.10;;;5.43;;
10230;SDS011;62604;49.432;8.680;2022-12-20T01:44:04;5.60;;;5.03;;
10230;SDS011;62604;49.432;8.680;2022-12-20T01:46:54;8.97;;;5.83;;
10230;SDS011;62604;49.432;8.680;2022-12-20T01:49:25;9.17;;;5.93;;
10230;SDS011;62604;49.432;8.680;2022-12-20T01:52:01;9.40;;;6.33;;
10230;SDS011;62604;49.432;8.680;2022-12-20T01:54:33;7.87;;;5.90;;
10230;SDS011;62604;49.432;8.680;2022-12-20T01:57:05;6.37;;;5.23;;
10230;SDS011;62604;49.432;8.680;2022-12-20T01:59:38;9.00;;;5.93;;
10230;SDS011;62604;49.432;8.680;2022-12-20T02:02:10;9.47;;;5.60;;
10230;SDS011;62604;49.432;8.680;2022-12-20T02:04:38;6.17;;;5.60;;
10230;SDS011;62604;49.432;8.680;2022-12-20T02:07:06;7.67;;;5.60;;
10230;SDS011;62604;49.432;8.680;2022-12-20T02:09:34;7.93;;;6.30;;
10230;SDS011;62604;49.432;8.680;2022-12-20T02:12:07;7.50;;;6.70;;
10230;SDS011;62604;49.432;8.680;2022-12-20T02:14:41;6.67;;;5.30;;
10230;SDS011;62604;49.432;8.680;2022-12-20T02:17:24;6.77;;;5.50;;
10230;SDS011;62604;49.432;8.680;2022-12-20T02:26:30;7.33;;;5.57;;
10230;SDS011;62604;49.432;8.680;2022-12-20T02:29:22;5.37;;;4.87;;
10230;SDS011;62604;49.432;8.680;2022-12-20T02:32:02;7.77;;;4.83;;
10230;SDS011;62604;49.432;8.680;2022-12-20T02:34:34;7.20;;;5.30;;
10230;SDS011;62604;49.432;8.680;2022-12-20T02:37:04;5.53;;;5.00;;
10230;SDS011;62604;49.432;8.680;2022-12-20T02:39:31;5.53;;;5.03;;
10230;SDS011;62604;49.432;8.680;2022-12-20T02:42:02;7.20;;;4.80;;
10230;SDS011;62604;49.432;8.680;2022-12-20T02:44:31;6.10;;;4.70;;
10230;SDS011;62604;49.432;8.680;2022-12-20T02:47:20;5.10;;;4.70;;
10230;SDS011;62604;49.432;8.680;2022-12-20T02:49:53;6.20;;;5.10;;
10230;SDS011;62604;49.432;8.680;2022-12-20T02:52:22;4.63;;;4.33;;
10230;SDS011;62604;49.432;8.680;2022-12-20T02:54:52;4.87;;;4.47;;
10230;SDS011;62604;49.432;8.680;2022-12-20T02:57:24;6.33;;;4.77;;
10230;SDS011;62604;49.432;8.680;2022-12-20T02:59:57;5.23;;;4.73;;
10230;SDS011;62604;49.432;8.680;2022-12-20T03:02:30;5.20;;;4.70;;
10230;SDS011;62604;49.432;8.680;2022-12-20T03:05:20;5.33;;;4.90;;
10230;SDS011;62604;49.432;8.680;2022-12-20T03:07:50;5.27;;;4.70;;
10230;SDS011;62604;49.432;8.680;2022-12-20T03:10:17;5.97;;;4.93;;
10230;SDS011;62604;49.432;8.680;2022-12-20T03:12:46;4.80;;;4.40;;
10230;SDS011;62604;49.432;8.680;2022-12-20T03:15:14;5.07;;;4.67;;
10230;SDS011;62604;49.432;8.680;2022-12-20T03:17:43;5.30;;;4.80;;
10230;SDS011;62604;49.432;8.680;2022-12-20T03:20:10;7.33;;;5.40;;
10230;SDS011;62604;49.432;8.680;2022-12-20T03:22:38;6.17;;;5.57;;
10230;SDS011;62604;49.432;8.680;2022-12-20T03:25:06;6.93;;;5.77;;
10230;SDS011;62604;49.432;8.680;2022-12-20T03:27:33;6.00;;;5.40;;
10230;SDS011;62604;49.432;8.680;2022-12-20T03:30:02;4.47;;;4.17;;
10230;SDS011;62604;49.432;8.680;2022-12-20T03:32:32;6.23;;;5.47;;
10230;SDS011;62604;49.432;8.680;2022-12-20T03:35:00;8.37;;;5.40;;
10230;SDS011;62604;49.432;8.680;2022-12-20T03:37:29;6.40;;;4.70;;
10230;SDS011;62604;49.432;8.680;2022-12-20T03:39:58;8.23;;;5.50;;
10230;SDS011;62604;49.432;8.680;2022-12-20T03:42:25;7.57;;;5.57;;
10230;SDS011;62604;49.432;8.680;2022-12-20T03:44:52;8.63;;;5.63;;
10230;SDS011;62604;49.432;8.680;2022-12-20T03:47:19;6.30;;;5.23;;
10230;SDS011;62604;49.432;8.680;2022-12-20T03:49:47;7.27;;;6.27;;
10230;SDS011;62604;49.432;8.680;2022-12-20T03:52:17;8.87;;;6.07;;
10230;SDS011;62604;49.432;8.680;2022-12-20T03:54:45;6.70;;;5.93;;
10230;SDS011;62604;49.432;8.680;2022-12-20T03:57:12;7.60;;;5.73;;
10230;SDS011;62604;49.432;8.680;2022-12-20T03:59:40;6.27;;;5.73;;
10230;SDS011;62604;49.432;8.680;2022-12-20T04:02:08;7.07;;;5.87;;
10230;SDS011;62604;49.432;8.680;2022-12-20T04:04:36;6.60;;;5.27;;
10230;SDS011;62604;49.432;8.680;2022-12-20T04:07:04;6.93;;;5.40;;
10230;SDS011;62604;49.432;8.680;2022-12-20T04:09:35;6.60;;;5.70;;
10230;SDS011;62604;49.432;8.680;2022-12-20T04:12:03;5.23;;;4.63;;
10230;SDS011;62604;49.432;8.680;2022-12-20T04:14:30;5.53;;;4.97;;
10230;SDS011;62604;49.432;8.680;2022-12-20T04:16:58;7.23;;;5.00;;
10230;SDS011;62604;49.432;8.680;2022-12-20T04:19:25;5.77;;;4.47;;
10230;SDS011;62604;49.432;8.680;2022-12-20T04:21:53;5.67;;;5.07;;
10230;SDS011;62604;49.432;8.680;2022-12-20T04:24:22;9.20;;;5.53;;
10230;SDS011;62604;49.432;8.680;2022-12-20T04:26:51;5.27;;;4.77;;
10230;SDS011;62604;49.432;8.680;2022-12-20T04:29:18;5.37;;;4.90;;
10230;SDS011;62604;49.432;8.680;2022-12-20T04:31:49;5.53;;;5.00;;
10230;SDS011;62604;49.432;8.680;2022-12-20T04:34:19;6.57;;;4.77;;
10230;SDS011;62604;49.432;8.680;2022-12-20T04:36:46;5.43;;;4.93;;
10230;SDS011;62604;49.432;8.680;2022-12-20T04:39:13;5.13;;;4.63;;
10230;SDS011;62604;49.432;8.680;2022-12-20T04:41:40;5.50;;;4.50;;
10230;SDS011;62604;49.432;8.680;2022-12-20T04:44:08;5.63;;;4.80;;
10230;SDS011;62604;49.432;8.680;2022-12-20T04:46:35;4.80;;;4.40;;
10230;SDS011;62604;49.432;8.680;2022-12-20T04:49:02;5.73;;;4.87;;
10230;SDS011;62604;49.432;8.680;2022-12-20T04:51:29;5.63;;;4.90;;
10230;SDS011;62604;49.432;8.680;2022-12-20T04:53:56;7.17;;;4.80;;
10230;SDS011;62604;49.432;8.680;2022-12-20T04:56:23;5.00;;;4.20;;
10230;SDS011;62604;49.432;8.680;2022-12-20T04:58:52;5.30;;;4.77;;
10230;SDS011;62604;49.432;8.680;2022-12-20T05:01:22;4.67;;;4.27;;
10230;SDS011;62604;49.432;8.680;2022-12-20T05:03:49;4.97;;;4.40;;
10230;SDS011;62604;49.432;8.680;2022-12-20T05:06:16;5.00;;;4.13;;
10230;SDS011;62604;49.432;8.680;2022-12-20T05:08:43;4.93;;;4.47;;
10230;SDS011;62604;49.432;8.680;2022-12-20T05:11:11;4.90;;;4.50;;
10230;SDS011;62604;49.432;8.680;2022-12-20T05:13:39;6.77;;;4.83;;
10230;SDS011;62604;49.432;8.680;2022-12-20T05:16:06;5.73;;;4.40;;
10230;SDS011;62604;49.432;8.680;2022-12-20T05:18:35;6.77;;;4.97;;
10230;SDS011;62604;49.432;8.680;2022-12-20T05:21:02;5.97;;;5.40;;
10230;SDS011;62604;49.432;8.680;2022-12-20T05:24:01;6.43;;;5.70;;
10230;SDS011;62604;49.432;8.680;2022-12-20T05:26:46;7.10;;;5.57;;
10230;SDS011;62604;49.432;8.680;2022-12-20T05:29:13;6.27;;;5.67;;
10230;SDS011;62604;49.432;8.680;2022-12-20T05:31:40;7.17;;;5.63;;
10230;SDS011;62604;49.432;8.680;2022-12-20T05:34:09;6.37;;;5.23;;
10230;SDS011;62604;49.432;8.680;2022-12-20T05:36:36;6.37;;;5.57;;
10230;SDS011;62604;49.432;8.680;2022-12-20T05:39:02;6.87;;;5.90;;
10230;SDS011;62604;49.432;8.680;2022-12-20T05:41:30;6.93;;;5.27;;
10230;SDS011;62604;49.432;8.680;2022-12-20T05:43:57;6.93;;;5.90;;
10230;SDS011;62604;49.432;8.680;2022-12-20T05:46:24;7.63;;;5.60;;
10230;SDS011;62604;49.432;8.680;2022-12-20T05:48:51;9.30;;;5.83;;
10230;SDS011;62604;49.432;8.680;2022-12-20T05:51:19;8.97;;;5.97;;
10230;SDS011;62604;49.432;8.680;2022-12-20T05:53:46;7.00;;;5.90;;
10230;SDS011;62604;49.432;8.680;2022-12-20T05:56:13;7.43;;;5.70;;
10230;SDS011;62604;49.432;8.680;2022-12-20T05:58:40;7.87;;;6.40;;
10230;SDS011;62604;49.432;8.680;2022-12-20T06:01:07;7.00;;;6.30;;
10230;SDS011;62604;49.432;8.680;2022-12-20T06:03:35;8.13;;;6.43;;
10230;SDS011;62604;49.432;8.680;2022-12-20T06:06:02;8.17;;;6.63;;
10230;SDS011;62604;49.432;8.680;2022-12-20T06:08:31;11.10;;;6.63;;
10230;SDS011;62604;49.432;8.680;2022-12-20T06:10:58;7.43;;;6.17;;
10230;SDS011;62604;49.432;8.680;2022-12-20T06:13:27;8.37;;;6.33;;
10230;SDS011;62604;49.432;8.680;2022-12-20T06:15:54;8.80;;;6.93;;
10230;SDS011;62604;49.432;8.680;2022-12-20T06:18:21;10.27;;;7.37;;
10230;SDS011;62604;49.432;8.680;2022-12-20T06:20:48;9.53;;;6.87;;
10230;SDS011;62604;49.432;8.680;2022-12-20T06:23:16;8.10;;;6.77;;
10230;SDS011;62604;49.432;8.680;2022-12-20T06:25:45;8.27;;;6.47;;
10230;SDS011;62604;49.432;8.680;2022-12-20T06:28:13;8.30;;;7.03;;
10230;SDS011;62604;49.432;8.680;2022-12-20T06:30:50;6.97;;;6.20;;
10230;SDS011;62604;49.432;8.680;2022-12-20T06:33:17;9.50;;;7.47;;
10230;SDS011;62604;49.432;8.680;2022-12-20T06:35:44;10.10;;;7.27;;
10230;SDS011;62604;49.432;8.680;2022-12-20T06:38:11;7.53;;;6.47;;
10230;SDS011;62604;49.432;8.680;2022-12-20T06:40:38;8.60;;;7.40;;
10230;SDS011;62604;49.432;8.680;2022-12-20T06:43:06;9.07;;;7.53;;
10230;SDS011;62604;49.432;8.680;2022-12-20T06:45:33;10.27;;;7.70;;
10230;SDS011;62604;49.432;8.680;2022-12-20T06:48:00;11.50;;;7.40;;
10230;SDS011;62604;49.432;8.680;2022-12-20T06:50:27;10.23;;;7.33;;
10230;SDS011;62604;49.432;8.680;2022-12-20T06:52:54;11.00;;;7.27;;
10230;SDS011;62604;49.432;8.680;2022-12-20T06:55:21;8.30;;;6.90;;
10230;SDS011;62604;49.432;8.680;2022-12-20T06:57:48;9.93;;;7.40;;
10230;SDS011;62604;49.432;8.680;2022-12-20T07:00:17;12.23;;;7.77;;
10230;SDS011;62604;49.432;8.680;2022-12-20T07:02:45;10.70;;;7.70;;
10230;SDS011;62604;49.432;8.680;2022-12-20T07:05:12;9.50;;;6.80;;
10230;SDS011;62604;49.432;8.680;2022-12-20T07:07:39;9.10;;;7.10;;
10230;SDS011;62604;49.432;8.680;2022-12-20T07:10:06;9.67;;;7.17;;
10230;SDS011;62604;49.432;8.680;2022-12-20T07:12:34;9.80;;;6.53;;
10230;SDS011;62604;49.432;8.680;2022-12-20T07:15:01;8.20;;;7.00;;
10230;SDS011;62604;49.432;8.680;2022-12-20T07:17:29;7.63;;;6.30;;
10230;SDS011;62604;49.432;8.680;2022-12-20T07:19:56;10.10;;;7.40;;
10230;SDS011;62604;49.432;8.680;2022-12-20T07:22:23;11.20;;;7.23;;
10230;SDS011;62604;49.432;8.680;2022-12-20T07:24:50;8.00;;;6.73;;
10230;SDS011;62604;49.432;8.680;2022-12-20T07:27:17;8.10;;;6.80;;
10230;SDS011;62604;49.432;8.680;2022-12-20T07:29:44;8.03;;;6.90;;
10230;SDS011;62604;49.432;8.680;2022-12-20T07:32:11;9.87;;;7.37;;
10230;SDS011;62604;49.432;8.680;2022-12-20T07:34:40;8.00;;;7.20;;
10230;SDS011;62604;49.432;8.680;2022-12-20T07:37:06;11.53;;;6.83;;
10230;SDS011;62604;49.432;8.680;2022-12-20T07:39:33;6.77;;;6.03;;
10230;SDS011;62604;49.432;8.680;2022-12-20T07:42:00;7.70;;;6.60;;
10230;SDS011;62604;49.432;8.680;2022-12-20T07:44:27;10.00;;;6.53;;
10230;SDS011;62604;49.432;8.680;2022-12-20T07:46:54;7.80;;;6.70;;
10230;SDS011;62604;49.432;8.680;2022-12-20T07:49:21;10.10;;;8.00;;
10230;SDS011;62604;49.432;8.680;2022-12-20T07:51:50;13.17;;;8.10;;
10230;SDS011;62604;49.432;8.680;2022-12-20T07:54:20;19.70;;;10.90;;
10230;SDS011;62604;49.432;8.680;2022-12-20T07:56:52;17.43;;;12.77;;
10230;SDS011;62604;49.432;8.680;2022-12-20T07:59:24;16.90;;;10.53;;
10230;SDS011;62604;49.432;8.680;2022-12-20T08:01:53;16.53;;;10.77;;
10230;SDS011;62604;49.432;8.680;2022-12-20T08:04:23;14.33;;;9.70;;
10230;SDS011;62604;49.432;8.680;2022-12-20T08:06:53;8.90;;;6.67;;
10230;SDS011;62604;49.432;8.680;2022-12-20T08:09:23;7.70;;;6.90;;
10230;SDS011;62604;49.432;8.680;2022-12-20T08:11:54;12.63;;;6.50;;
10230;SDS011;62604;49.432;8.680;2022-12-20T08:14:23;8.23;;;7.07;;
10230;SDS011;62604;49.432;8.680;2022-12-20T08:16:50;8.57;;;7.07;;
10230;SDS011;62604;49.432;8.680;2022-12-20T08:19:17;10.67;;;6.90;;
10230;SDS011;62604;49.432;8.680;2022-12-20T08:21:44;6.70;;;5.87;;
10230;SDS011;62604;49.432;8.680;2022-12-20T08:24:12;7.43;;;5.97;;
10230;SDS011;62604;49.432;8.680;2022-12-20T08:26:39;7.03;;;6.17;;
10230;SDS011;62604;49.432;8.680;2022-12-20T08:29:07;6.77;;;5.93;;
10230;SDS011;62604;49.432;8.680;2022-12-20T08:31:35;9.23;;;6.90;;
10230;SDS011;62604;49.432;8.680;2022-12-20T08:34:03;12.23;;;6.97;;
10230;SDS011;62604;49.432;8.680;2022-12-20T08:36:30;8.50;;;6.60;;
10230;SDS011;62604;49.432;8.680;2022-12-20T08:38:57;9.37;;;6.97;;
10230;SDS011;62604;49.432;8.680;2022-12-20T08:41:28;7.53;;;6.60;;
10230;SDS011;62604;49.432;8.680;2022-12-20T08:43:55;10.73;;;8.80;;
10230;SDS011;62604;49.432;8.680;2022-12-20T08:46:22;9.97;;;7.87;;
10230;SDS011;62604;49.432;8.680;2022-12-20T08:48:49;8.20;;;6.27;;
10230;SDS011;62604;49.432;8.680;2022-12-20T08:51:16;8.77;;;6.70;;
10230;SDS011;62604;49.432;8.680;2022-12-20T08:53:43;7.13;;;5.83;;
10230;SDS011;62604;49.432;8.680;2022-12-20T08:56:10;7.30;;;5.93;;
10230;SDS011;62604;49.432;8.680;2022-12-20T08:58:40;7.80;;;6.00;;
10230;SDS011;62604;49.432;8.680;2022-12-20T09:01:09;7.40;;;5.77;;
10230;SDS011;62604;49.432;8.680;2022-12-20T09:03:38;7.57;;;5.63;;
10230;SDS011;62604;49.432;8.680;2022-12-20T09:06:06;6.83;;;5.83;;
10230;SDS011;62604;49.432;8.680;2022-12-20T09:08:35;7.40;;;5.60;;
10230;SDS011;62604;49.432;8.680;2022-12-20T09:11:04;5.97;;;5.30;;
10230;SDS011;62604;49.432;8.680;2022-12-20T09:13:32;6.70;;;5.80;;
10230;SDS011;62604;49.432;8.680;2022-12-20T09:16:01;6.40;;;5.80;;
10230;SDS011;62604;49.432;8.680;2022-12-20T09:18:29;9.13;;;5.77;;
10230;SDS011;62604;49.432;8.680;2022-12-20T09:20:58;9.00;;;5.57;;
10230;SDS011;62604;49.432;8.680;2022-12-20T09:23:25;7.03;;;5.77;;
10230;SDS011;62604;49.432;8.680;2022-12-20T09:25:52;5.87;;;5.33;;
10230;SDS011;62604;49.432;8.680;2022-12-20T09:28:19;7.40;;;5.90;;
10230;SDS011;62604;49.432;8.680;2022-12-20T09:30:46;6.60;;;5.90;;
10230;SDS011;62604;49.432;8.680;2022-12-20T09:33:15;8.10;;;5.97;;
10230;SDS011;62604;49.432;8.680;2022-12-20T09:35:44;8.90;;;6.00;;
10230;SDS011;62604;49.432;8.680;2022-12-20T09:38:12;6.57;;;5.70;;
10230;SDS011;62604;49.432;8.680;2022-12-20T09:40:43;6.20;;;5.60;;
10230;SDS011;62604;49.432;8.680;2022-12-20T09:43:12;6.30;;;5.60;;
10230;SDS011;62604;49.432;8.680;2022-12-20T09:45:40;6.07;;;5.23;;
10230;SDS011;62604;49.432;8.680;2022-12-20T09:48:08;5.67;;;4.93;;
10230;SDS011;62604;49.432;8.680;2022-12-20T09:50:42;5.87;;;5.37;;
10230;SDS011;62604;49.432;8.680;2022-12-20T09:53:18;5.57;;;5.10;;
10230;SDS011;62604;49.432;8.680;2022-12-20T09:55:55;5.13;;;4.63;;
10230;SDS011;62604;49.432;8.680;2022-12-20T09:58:32;5.30;;;4.90;;
10230;SDS011;62604;49.432;8.680;2022-12-20T10:01:13;4.70;;;4.30;;
10230;SDS011;62604;49.432;8.680;2022-12-20T10:03:42;5.43;;;4.30;;
10230;SDS011;62604;49.432;8.680;2022-12-20T10:06:12;5.70;;;5.20;;
10230;SDS011;62604;49.432;8.680;2022-12-20T10:08:49;5.30;;;4.90;;
10230;SDS011;62604;49.432;8.680;2022-12-20T10:11:25;4.90;;;4.60;;
10230;SDS011;62604;49.432;8.680;2022-12-20T10:14:07;5.67;;;5.17;;
10230;SDS011;62604;49.432;8.680;2022-12-20T10:16:46;6.67;;;5.50;;
10230;SDS011;62604;49.432;8.680;2022-12-20T10:19:20;6.03;;;5.13;;
10230;SDS011;62604;49.432;8.680;2022-12-20T10:22:15;5.90;;;5.40;;
10230;SDS011;62604;49.432;8.680;2022-12-20T10:24:50;5.67;;;5.20;;
10230;SDS011;62604;49.432;8.680;2022-12-20T10:27:24;4.93;;;4.53;;
10230;SDS011;62604;49.432;8.680;2022-12-20T10:29:51;5.33;;;4.83;;
10230;SDS011;62604;49.432;8.680;2022-12-20T10:32:19;4.67;;;4.27;;
10230;SDS011;62604;49.432;8.680;2022-12-20T10:34:50;4.97;;;4.67;;
10230;SDS011;62604;49.432;8.680;2022-12-20T10:37:23;4.33;;;4.03;;
10230;SDS011;62604;49.432;8.680;2022-12-20T10:39:50;4.80;;;4.40;;
10230;SDS011;62604;49.432;8.680;2022-12-20T10:42:22;4.67;;;4.30;;
10230;SDS011;62604;49.432;8.680;2022-12-20T10:44:52;4.30;;;3.97;;
10230;SDS011;62604;49.432;8.680;2022-12-20T10:47:22;4.60;;;4.30;;
10230;SDS011;62604;49.432;8.680;2022-12-20T10:50:07;4.70;;;4.40;;
10230;SDS011;62604;49.432;8.680;2022-12-20T10:52:37;4.63;;;4.33;;
10230;SDS011;62604;49.432;8.680;2022-12-20T10:55:06;4.47;;;4.17;;
10230;SDS011;62604;49.432;8.680;2022-12-20T10:58:05;4.80;;;4.50;;
10230;SDS011;62604;49.432;8.680;2022-12-20T11:00:42;4.67;;;4.30;;
10230;SDS011;62604;49.432;8.680;2022-12-20T11:03:11;5.20;;;4.80;;
10230;SDS011;62604;49.432;8.680;2022-12-20T11:05:51;4.93;;;4.63;;
10230;SDS011;62604;49.432;8.680;2022-12-20T11:08:21;4.97;;;4.57;;
10230;SDS011;62604;49.432;8.680;2022-12-20T11:10:50;5.03;;;4.43;;
10230;SDS011;62604;49.432;8.680;2022-12-20T11:13:35;4.93;;;4.57;;
10230;SDS011;62604;49.432;8.680;2022-12-20T11:16:03;5.17;;;4.77;;
10230;SDS011;62604;49.432;8.680;2022-12-20T11:18:35;4.30;;;4.00;;
10230;SDS011;62604;49.432;8.680;2022-12-20T11:21:13;5.70;;;4.60;;
10230;SDS011;62604;49.432;8.680;2022-12-20T11:23:49;7.00;;;4.53;;
10230;SDS011;62604;49.432;8.680;2022-12-20T11:26:28;4.83;;;4.43;;
10230;SDS011;62604;49.432;8.680;2022-12-20T11:29:07;5.67;;;4.80;;
10230;SDS011;62604;49.432;8.680;2022-12-20T11:31:49;6.47;;;4.20;;
10230;SDS011;62604;49.432;8.680;2022-12-20T11:34:27;4.77;;;4.47;;
10230;SDS011;62604;49.432;8.680;2022-12-20T11:37:08;4.53;;;4.23;;
10230;SDS011;62604;49.432;8.680;2022-12-20T11:39:48;4.90;;;4.53;;
10230;SDS011;62604;49.432;8.680;2022-12-20T11:42:26;4.50;;;4.20;;
10230;SDS011;62604;49.432;8.680;2022-12-20T11:45:03;5.07;;;4.57;;
10230;SDS011;62604;49.432;8.680;2022-12-20T11:47:54;4.17;;;3.90;;
10230;SDS011;62604;49.432;8.680;2022-12-20T11:50:41;4.80;;;4.40;;
10230;SDS011;62604;49.432;8.680;2022-12-20T11:53:25;5.13;;;4.60;;
10230;SDS011;62604;49.432;8.680;2022-12-20T11:56:00;4.80;;;4.50;;
10230;SDS011;62604;49.432;8.680;2022-12-20T11:58:32;4.87;;;4.50;;
10230;SDS011;62604;49.432;8.680;2022-12-20T12:01:11;5.33;;;4.83;;
10230;SDS011;62604;49.432;8.680;2022-12-20T12:03:42;5.23;;;4.83;;
10230;SDS011;62604;49.432;8.680;2022-12-20T12:06:15;5.33;;;4.80;;
10230;SDS011;62604;49.432;8.680;2022-12-20T12:08:47;6.03;;;5.43;;
10230;SDS011;62604;49.432;8.680;2022-12-20T12:11:20;6.87;;;5.70;;
10230;SDS011;62604;49.432;8.680;2022-12-20T12:13:51;6.60;;;5.93;;
10230;SDS011;62604;49.432;8.680;2022-12-20T12:16:20;6.97;;;5.43;;
10230;SDS011;62604;49.432;8.680;2022-12-20T12:18:52;5.83;;;5.33;;
10230;SDS011;62604;49.432;8.680;2022-12-20T12:21:21;6.17;;;5.67;;
10230;SDS011;62604;49.432;8.680;2022-12-20T12:23:53;7.27;;;5.50;;
10230;SDS011;62604;49.432;8.680;2022-12-20T12:26:28;6.50;;;5.70;;
10230;SDS011;62604;49.432;8.680;2022-12-20T12:28:57;5.50;;;5.00;;
10230;SDS011;62604;49.432;8.680;2022-12-20T12:31:27;7.60;;;5.93;;
10230;SDS011;62604;49.432;8.680;2022-12-20T12:34:03;6.20;;;5.60;;
10230;SDS011;62604;49.432;8.680;2022-12-20T12:36:48;6.17;;;5.57;;
10230;SDS011;62604;49.432;8.680;2022-12-20T12:39:40;8.03;;;6.63;;
10230;SDS011;62604;49.432;8.680;2022-12-20T12:42:32;7.73;;;6.17;;
10230;SDS011;62604;49.432;8.680;2022-12-20T12:45:22;7.47;;;6.50;;
10230;SDS011;62604;49.432;8.680;2022-12-20T12:47:55;9.37;;;6.47;;
10230;SDS011;62604;49.432;8.680;2022-12-20T12:50:29;7.47;;;5.70;;
10230;SDS011;62604;49.432;8.680;2022-12-20T12:53:03;6.13;;;5.50;;
10230;SDS011;62604;49.432;8.680;2022-12-20T12:55:40;6.83;;;5.20;;
10230;SDS011;62604;49.432;8.680;2022-12-20T12:58:13;6.87;;;5.63;;
10230;SDS011;62604;49.432;8.680;2022-12-20T13:00:55;8.83;;;4.70;;
10230;SDS011;62604;49.432;8.680;2022-12-20T13:09:20;5.20;;;4.80;;
10230;SDS011;62604;49.432;8.680;2022-12-20T13:12:45;5.13;;;4.80;;
10230;SDS011;62604;49.432;8.680;2022-12-20T13:18:31;4.73;;;4.43;;
10230;SDS011;62604;49.432;8.680;2022-12-20T13:21:17;5.83;;;5.17;;
10230;SDS011;62604;49.432;8.680;2022-12-20T13:38:59;5.20;;;4.80;;
10230;SDS011;62604;49.432;8.680;2022-12-20T13:41:32;5.47;;;5.07;;
10230;SDS011;62604;49.432;8.680;2022-12-20T13:47:06;5.13;;;4.73;;
10230;SDS011;62604;49.432;8.680;2022-12-20T13:49:46;4.90;;;4.50;;
10230;SDS011;62604;49.432;8.680;2022-12-20T13:52:16;5.13;;;4.73;;
10230;SDS011;62604;49.432;8.680;2022-12-20T13:54:48;4.70;;;4.30;;
10230;SDS011;62604;49.432;8.680;2022-12-20T13:57:20;5.17;;;4.60;;
10230;SDS011;62604;49.432;8.680;2022-12-20T13:59:55;5.23;;;4.83;;
10230;SDS011;62604;49.432;8.680;2022-12-20T14:02:26;5.07;;;4.67;;
10230;SDS011;62604;49.432;8.680;2022-12-20T14:04:58;6.90;;;5.23;;
10230;SDS011;62604;49.432;8.680;2022-12-20T14:07:27;5.97;;;5.17;;
10230;SDS011;62604;49.432;8.680;2022-12-20T14:09:57;5.60;;;5.03;;
10230;SDS011;62604;49.432;8.680;2022-12-20T14:12:25;11.80;;;7.57;;
10230;SDS011;62604;49.432;8.680;2022-12-20T14:14:53;6.43;;;5.83;;
10230;SDS011;62604;49.432;8.680;2022-12-20T14:17:24;7.77;;;6.30;;
10230;SDS011;62604;49.432;8.680;2022-12-20T14:20:11;8.37;;;6.30;;
10230;SDS011;62604;49.432;8.680;2022-12-20T14:22:41;7.03;;;6.03;;
10230;SDS011;62604;49.432;8.680;2022-12-20T14:25:13;6.20;;;5.50;;
10230;SDS011;62604;49.432;8.680;2022-12-20T14:27:43;6.40;;;5.80;;
10230;SDS011;62604;49.432;8.680;2022-12-20T14:30:24;6.87;;;5.97;;
10230;SDS011;62604;49.432;8.680;2022-12-20T14:32:54;6.93;;;6.27;;
10230;SDS011;62604;49.432;8.680;2022-12-20T14:35:23;9.87;;;7.13;;
10230;SDS011;62604;49.432;8.680;2022-12-20T14:37:53;6.43;;;5.83;;
10230;SDS011;62604;49.432;8.680;2022-12-20T14:40:22;8.03;;;6.17;;
10230;SDS011;62604;49.432;8.680;2022-12-20T14:42:50;7.53;;;6.63;;
10230;SDS011;62604;49.432;8.680;2022-12-20T14:45:18;12.23;;;8.30;;
10230;SDS011;62604;49.432;8.680;2022-12-20T14:47:49;8.97;;;7.20;;
10230;SDS011;62604;49.432;8.680;2022-12-20T14:50:29;8.83;;;6.90;;
10230;SDS011;62604;49.432;8.680;2022-12-20T14:52:58;6.97;;;4.47;;
10230;SDS011;62604;49.432;8.680;2022-12-20T14:55:29;5.97;;;5.40;;
10230;SDS011;62604;49.432;8.680;2022-12-20T14:57:59;9.10;;;6.63;;
10230;SDS011;62604;49.432;8.680;2022-12-20T15:00:26;8.33;;;5.47;;
10230;SDS011;62604;49.432;8.680;2022-12-20T15:03:10;8.13;;;6.00;;
10230;SDS011;62604;49.432;8.680;2022-12-20T15:05:50;5.80;;;5.30;;
10230;SDS011;62604;49.432;8.680;2022-12-20T15:08:19;4.93;;;4.53;;
10230;SDS011;62604;49.432;8.680;2022-12-20T15:10:50;5.50;;;5.07;;
10230;SDS011;62604;49.432;8.680;2022-12-20T15:13:20;4.43;;;4.13;;
10230;SDS011;62604;49.432;8.680;2022-12-20T15:15:50;4.10;;;3.77;;
10230;SDS011;62604;49.432;8.680;2022-12-20T15:18:18;4.73;;;4.30;;
10230;SDS011;62604;49.432;8.680;2022-12-20T15:20:47;4.67;;;4.30;;
10230;SDS011;62604;49.432;8.680;2022-12-20T15:23:23;4.70;;;4.37;;
10230;SDS011;62604;49.432;8.680;2022-12-20T15:25:50;4.73;;;4.33;;
10230;SDS011;62604;49.432;8.680;2022-12-20T15:28:19;5.97;;;4.77;;
10230;SDS011;62604;49.432;8.680;2022-12-20T15:30:48;6.00;;;5.40;;
10230;SDS011;62604;49.432;8.680;2022-12-20T15:33:17;6.83;;;5.40;;
10230;SDS011;62604;49.432;8.680;2022-12-20T15:35:46;5.27;;;4.60;;
10230;SDS011;62604;49.432;8.680;2022-12-20T15:38:16;5.83;;;5.10;;
10230;SDS011;62604;49.432;8.680;2022-12-20T15:40:45;5.53;;;5.10;;
10230;SDS011;62604;49.432;8.680;2022-12-20T15:43:13;7.80;;;5.10;;
10230;SDS011;62604;49.432;8.680;2022-12-20T15:45:45;5.23;;;4.73;;
10230;SDS011;62604;49.432;8.680;2022-12-20T15:48:15;4.93;;;4.53;;
10230;SDS011;62604;49.432;8.680;2022-12-20T15:50:44;5.30;;;4.80;;
10230;SDS011;62604;49.432;8.680;2022-12-20T15:53:17;4.83;;;4.43;;
10230;SDS011;62604;49.432;8.680;2022-12-20T15:55:50;5.00;;;4.60;;
10230;SDS011;62604;49.432;8.680;2022-12-20T15:58:18;5.40;;;4.40;;
10230;SDS011;62604;49.432;8.680;2022-12-20T16:00:45;5.50;;;5.00;;
10230;SDS011;62604;49.432;8.680;2022-12-20T16:03:14;5.67;;;4.80;;
10230;SDS011;62604;49.432;8.680;2022-12-20T16:05:43;4.57;;;4.17;;
10230;SDS011;62604;49.432;8.680;2022-12-20T16:08:11;5.20;;;4.70;;
10230;SDS011;62604;49.432;8.680;2022-12-20T16:10:39;5.17;;;4.67;;
10230;SDS011;62604;49.432;8.680;2022-12-20T16:13:08;6.80;;;4.60;;
10230;SDS011;62604;49.432;8.680;2022-12-20T16:15:39;5.33;;;4.87;;
10230;SDS011;62604;49.432;8.680;2022-12-20T16:18:06;6.67;;;5.20;;
10230;SDS011;62604;49.432;8.680;2022-12-20T16:20:33;8.53;;;5.20;;
10230;SDS011;62604;49.432;8.680;2022-12-20T16:23:00;5.60;;;4.90;;
10230;SDS011;62604;49.432;8.680;2022-12-20T16:25:29;5.37;;;4.87;;
10230;SDS011;62604;49.432;8.680;2022-12-20T16:28:00;5.57;;;5.07;;
10230;SDS011;62604;49.432;8.680;2022-12-20T16:30:27;7.23;;;5.53;;
10230;SDS011;62604;49.432;8.680;2022-12-20T16:32:54;6.30;;;5.70;;
10230;SDS011;62604;49.432;8.680;2022-12-20T16:35:26;5.83;;;5.33;;